createdAt,value
2022-08-18T00:01:51.182Z,2.57
2022-08-18T00:04:36.619Z,3.10
2022-08-18T00:07:09.814Z,3.10
2022-08-18T00:09:39.296Z,3.10
2022-08-18T00:12:08.972Z,2.63
2022-08-18T00:14:38.309Z,2.70
2022-08-18T00:17:06.318Z,3.07
2022-08-18T00:19:47.094Z,3.90
2022-08-18T00:22:18.365Z,3.20
2022-08-18T00:24:48.487Z,2.40
2022-08-18T00:27:17.365Z,3.03
2022-08-18T00:29:47.504Z,2.93
2022-08-18T00:32:16.015Z,3.13
2022-08-18T00:34:43.968Z,3.20
2022-08-18T00:37:12.097Z,3.10
2022-08-18T00:39:40.640Z,3.97
2022-08-18T00:42:27.593Z,3.57
2022-08-18T00:45:00.487Z,3.33
2022-08-18T00:47:41.420Z,3.20
2022-08-18T00:50:15.093Z,3.17
2022-08-18T00:52:43.970Z,3.50
2022-08-18T00:55:12.382Z,3.47
2022-08-18T00:57:42.931Z,3.93
2022-08-18T01:00:14.144Z,3.60
2022-08-18T01:02:47.672Z,3.63
2022-08-18T01:05:17.583Z,3.37
2022-08-18T01:07:46.712Z,4.13
2022-08-18T01:10:17.186Z,3.80
2022-08-18T01:12:47.060Z,4.17
2022-08-18T01:15:27.645Z,3.63
2022-08-18T01:18:15.058Z,3.77
2022-08-18T01:21:17.208Z,3.40
2022-08-18T01:23:46.996Z,3.43
2022-08-18T01:26:14.534Z,3.17
2022-08-18T01:28:44.731Z,3.30
2022-08-18T01:31:13.668Z,3.40
2022-08-18T01:33:43.469Z,3.40
2022-08-18T01:36:16.866Z,3.23
2022-08-18T01:38:47.035Z,3.50
2022-08-18T01:41:28.666Z,3.10
2022-08-18T01:43:59.294Z,3.30
2022-08-18T01:46:27.749Z,3.00
2022-08-18T01:48:55.985Z,3.07
2022-08-18T01:51:39.944Z,3.50
2022-08-18T01:54:11.383Z,3.73
2022-08-18T01:56:40.966Z,3.23
2022-08-18T01:59:10.528Z,2.80
2022-08-18T02:01:43.311Z,2.90
2022-08-18T02:04:34.371Z,3.03
2022-08-18T02:07:04.311Z,3.27
2022-08-18T02:09:34.330Z,3.27
2022-08-18T02:12:02.523Z,3.03
2022-08-18T02:14:31.397Z,3.53
2022-08-18T02:17:01.582Z,3.33
2022-08-18T02:19:33.542Z,3.20
2022-08-18T02:22:01.533Z,3.50
2022-08-18T02:24:29.564Z,3.67
2022-08-18T02:26:58.967Z,3.70
2022-08-18T02:29:26.887Z,3.63
2022-08-18T02:31:54.807Z,3.77
2022-08-18T02:34:22.873Z,3.70
2022-08-18T02:36:53.824Z,3.23
2022-08-18T02:39:21.843Z,3.40
2022-08-18T02:41:49.801Z,3.27
2022-08-18T02:44:19.321Z,3.70
2022-08-18T02:46:47.270Z,3.80
2022-08-18T02:49:15.249Z,3.37
2022-08-18T02:51:46.430Z,4.27
2022-08-18T02:54:14.424Z,4.30
2022-08-18T02:56:42.681Z,5.10
2022-08-18T02:59:13.071Z,4.90
2022-08-18T03:01:43.548Z,5.57
2022-08-18T03:04:12.638Z,5.27
2022-08-18T03:06:40.635Z,5.23
2022-08-18T03:09:09.897Z,5.23
2022-08-18T03:11:38.828Z,5.83
2022-08-18T03:14:08.686Z,5.83
2022-08-18T03:16:45.766Z,6.40
2022-08-18T03:19:24.755Z,5.30
2022-08-18T03:21:53.436Z,5.47
2022-08-18T03:24:22.367Z,6.10
2022-08-18T03:26:51.294Z,6.47
2022-08-18T03:29:19.639Z,5.73
2022-08-18T03:31:48.998Z,6.10
2022-08-18T03:34:19.846Z,6.20
2022-08-18T03:36:50.135Z,6.87
2022-08-18T03:39:18.838Z,7.60
2022-08-18T03:41:58.001Z,7.00
2022-08-18T03:44:29.163Z,7.27
2022-08-18T03:46:57.626Z,6.57
2022-08-18T03:49:27.426Z,7.60
2022-08-18T03:51:57.227Z,7.13
2022-08-18T03:54:25.865Z,6.80
2022-08-18T03:56:54.486Z,6.60
2022-08-18T03:59:23.973Z,6.77
2022-08-18T04:01:54.086Z,5.97
2022-08-18T04:04:23.445Z,6.43
2022-08-18T04:06:54.259Z,6.37
2022-08-18T04:09:24.773Z,6.17
2022-08-18T04:11:52.897Z,6.30
2022-08-18T04:14:21.663Z,6.23
2022-08-18T04:16:49.621Z,6.17
2022-08-18T04:19:23.146Z,6.23
2022-08-18T04:21:56.021Z,5.63
2022-08-18T04:24:26.398Z,6.47
2022-08-18T04:26:54.700Z,6.17
2022-08-18T04:29:22.796Z,6.23
2022-08-18T04:31:52.116Z,6.20
2022-08-18T04:34:21.491Z,5.97
2022-08-18T04:36:50.719Z,6.13
2022-08-18T04:39:18.675Z,5.97
2022-08-18T04:41:48.452Z,5.87
2022-08-18T04:44:17.653Z,6.03
2022-08-18T04:46:48.864Z,6.03
2022-08-18T04:49:17.618Z,5.80
2022-08-18T04:52:26.902Z,6.43
2022-08-18T04:54:54.950Z,6.93
2022-08-18T04:57:24.367Z,6.33
2022-08-18T04:59:53.633Z,6.53
2022-08-18T05:02:22.621Z,6.43
2022-08-18T05:04:52.285Z,6.67
2022-08-18T05:07:22.683Z,7.67
2022-08-18T05:09:50.953Z,6.73
2022-08-18T05:12:18.973Z,7.23
2022-08-18T05:14:51.392Z,7.37
2022-08-18T05:17:19.425Z,7.93
2022-08-18T05:19:47.622Z,7.90
2022-08-18T05:22:27.848Z,7.37
2022-08-18T05:24:58.297Z,7.40
2022-08-18T05:27:26.278Z,7.30
2022-08-18T05:29:55.671Z,8.00
2022-08-18T05:32:42.522Z,6.97
2022-08-18T05:35:14.321Z,6.30
2022-08-18T05:37:51.755Z,6.40
2022-08-18T05:40:22.445Z,6.83
2022-08-18T05:42:50.463Z,6.10
2022-08-18T05:45:20.327Z,7.40
2022-08-18T05:47:48.627Z,7.67
2022-08-18T05:50:19.150Z,7.83
2022-08-18T05:52:52.189Z,11.20
2022-08-18T05:55:44.768Z,8.53
2022-08-18T05:58:18.623Z,8.47
2022-08-18T06:00:57.501Z,8.10
2022-08-18T06:03:28.755Z,8.10
2022-08-18T06:06:00.005Z,6.80
2022-08-18T06:08:30.385Z,6.27
2022-08-18T06:10:58.379Z,6.80
2022-08-18T06:13:26.477Z,7.37
2022-08-18T06:16:02.206Z,6.87
2022-08-18T06:18:36.449Z,6.57
2022-08-18T06:21:12.169Z,6.63
2022-08-18T06:23:43.693Z,6.30
2022-08-18T06:26:14.576Z,5.73
2022-08-18T06:28:51.809Z,4.23
2022-08-18T06:31:28.906Z,4.00
2022-08-18T06:34:00.369Z,4.70
2022-08-18T06:36:33.526Z,4.03
2022-08-18T06:39:04.849Z,3.97
2022-08-18T06:41:41.887Z,3.97
2022-08-18T06:44:13.069Z,3.30
2022-08-18T06:46:47.158Z,3.50
2022-08-18T06:49:21.608Z,3.67
2022-08-18T06:51:49.584Z,3.90
2022-08-18T06:54:28.112Z,3.73
2022-08-18T06:56:56.894Z,3.60
2022-08-18T06:59:27.020Z,4.23
2022-08-18T07:02:00.065Z,4.20
2022-08-18T07:04:39.484Z,3.80
2022-08-18T07:07:15.093Z,3.13
2022-08-18T07:09:43.030Z,3.43
2022-08-18T07:12:11.763Z,3.20
2022-08-18T07:14:47.878Z,3.27
2022-08-18T07:17:22.404Z,3.97
2022-08-18T07:20:11.666Z,3.70
2022-08-18T07:22:53.569Z,4.40
2022-08-18T07:25:24.538Z,3.80
2022-08-18T07:27:56.178Z,4.00
2022-08-18T07:30:32.373Z,4.87
2022-08-18T07:33:07.059Z,4.67
2022-08-18T07:35:39.302Z,6.00
2022-08-18T07:38:41.088Z,4.17
2022-08-18T07:41:06.679Z,4.10
2022-08-18T07:43:38.819Z,3.30
2022-08-18T07:46:11.566Z,4.27
2022-08-18T07:48:41.125Z,3.63
2022-08-18T07:51:13.776Z,3.40
2022-08-18T07:53:55.900Z,3.50
2022-08-18T07:56:30.412Z,3.20
2022-08-18T07:59:00.305Z,3.13
2022-08-18T08:01:33.666Z,2.93
2022-08-18T08:04:07.336Z,2.90
2022-08-18T08:06:40.483Z,2.80
2022-08-18T08:09:11.843Z,3.20
2022-08-18T08:11:44.717Z,2.83
2022-08-18T08:14:25.669Z,3.10
2022-08-18T08:17:04.530Z,2.83
2022-08-18T08:20:00.498Z,2.90
2022-08-18T08:22:32.789Z,2.90
2022-08-18T08:25:04.337Z,2.93
2022-08-18T08:27:37.524Z,2.90
2022-08-18T08:30:07.191Z,2.73
2022-08-18T08:32:36.450Z,2.70
2022-08-18T08:35:10.395Z,2.67
2022-08-18T08:37:43.898Z,2.70
2022-08-18T08:40:17.054Z,2.87
2022-08-18T08:42:48.649Z,3.17
2022-08-18T08:45:18.543Z,2.70
2022-08-18T08:47:50.084Z,2.60
2022-08-18T08:50:19.549Z,2.53
2022-08-18T08:52:50.112Z,2.80
2022-08-18T08:55:21.550Z,3.00
2022-08-18T08:57:52.148Z,2.70
2022-08-18T09:00:20.339Z,2.80
2022-08-18T09:02:56.240Z,2.87
2022-08-18T09:05:25.457Z,2.43
2022-08-18T09:08:12.357Z,2.97
2022-08-18T09:10:50.012Z,2.70
2022-08-18T09:13:45.120Z,2.87
2022-08-18T09:16:18.818Z,2.90
2022-08-18T09:18:57.825Z,2.80
2022-08-18T09:21:35.510Z,3.00
2022-08-18T09:24:21.984Z,3.00
2022-08-18T09:26:52.809Z,2.43
2022-08-18T09:29:27.382Z,2.50
2022-08-18T09:32:28.265Z,2.90
2022-08-18T09:35:03.230Z,2.73
2022-08-18T09:37:41.383Z,2.83
2022-08-18T09:41:01.845Z,2.73
2022-08-18T09:43:34.020Z,2.60
2022-08-18T09:46:06.274Z,2.73
2022-08-18T09:48:43.259Z,2.40
2022-08-18T09:51:40.059Z,2.80
2022-08-18T09:57:19.492Z,2.50
2022-08-18T10:00:15.569Z,2.53
2022-08-18T10:03:10.467Z,2.20
2022-08-18T10:05:38.857Z,2.50
2022-08-18T10:08:25.364Z,2.50
2022-08-18T10:11:02.863Z,2.50
2022-08-18T10:13:51.798Z,2.47
2022-08-18T10:16:22.798Z,4.77
2022-08-18T10:18:58.196Z,3.03
2022-08-18T10:21:31.426Z,2.70
2022-08-18T10:24:32.113Z,2.83
2022-08-18T10:27:03.938Z,3.00
2022-08-18T10:29:55.804Z,2.80
2022-08-18T10:32:52.395Z,2.50
2022-08-18T10:35:53.595Z,2.87
2022-08-18T10:38:25.035Z,2.90
2022-08-18T10:41:09.789Z,3.03
2022-08-18T10:43:55.658Z,3.17
2022-08-18T10:46:31.848Z,2.97
2022-08-18T10:49:15.874Z,3.93
2022-08-18T10:51:59.118Z,2.93
2022-08-18T10:54:34.880Z,3.07
2022-08-18T10:57:22.153Z,2.70
2022-08-18T10:59:55.032Z,2.83
2022-08-18T11:02:37.029Z,3.17
2022-08-18T11:05:06.783Z,2.97
2022-08-18T11:07:39.712Z,2.97
2022-08-18T11:13:13.900Z,2.93
2022-08-18T11:15:50.695Z,2.50
2022-08-18T11:18:30.182Z,3.27
2022-08-18T11:21:13.678Z,3.13
2022-08-18T11:23:41.888Z,2.63
2022-08-18T11:26:15.223Z,2.87
2022-08-18T11:31:34.458Z,2.77
2022-08-18T11:34:17.841Z,3.00
2022-08-18T11:36:57.826Z,3.70
2022-08-18T11:39:37.782Z,2.93
2022-08-18T11:42:16.044Z,3.23
2022-08-18T11:44:55.132Z,2.93
2022-08-18T11:50:13.990Z,2.77
2022-08-18T11:52:49.681Z,2.60
2022-08-18T11:55:24.390Z,2.67
2022-08-18T11:57:58.685Z,3.10
2022-08-18T12:00:46.528Z,2.77
2022-08-18T12:03:20.050Z,2.30
2022-08-18T12:05:55.929Z,2.50
2022-08-18T12:08:50.971Z,2.50
2022-08-18T12:11:27.482Z,2.50
2022-08-18T12:14:31.703Z,2.37
2022-08-18T12:16:54.103Z,2.60
2022-08-18T12:19:24.198Z,2.40
2022-08-18T12:21:55.159Z,2.60
2022-08-18T12:24:27.726Z,2.50
2022-08-18T12:27:20.524Z,2.27
2022-08-18T12:29:49.716Z,2.70
2022-08-18T12:32:41.762Z,2.47
2022-08-18T12:38:04.980Z,2.40
2022-08-18T12:40:42.317Z,2.10
2022-08-18T12:43:10.651Z,2.50
2022-08-18T12:45:39.183Z,2.40
2022-08-18T12:48:07.896Z,2.07
2022-08-18T12:50:41.107Z,2.43
2022-08-18T12:53:30.508Z,2.27
2022-08-18T12:56:10.647Z,2.20
2022-08-18T12:58:40.488Z,2.53
2022-08-18T13:01:08.626Z,2.37
2022-08-18T13:03:37.175Z,2.40
2022-08-18T13:06:05.977Z,2.70
2022-08-18T13:08:47.761Z,2.30
2022-08-18T13:11:21.721Z,2.07
2022-08-18T13:13:53.229Z,2.37
2022-08-18T13:16:30.499Z,2.43
2022-08-18T13:19:07.551Z,2.47
2022-08-18T13:21:41.104Z,2.40
2022-08-18T13:24:12.659Z,2.00
2022-08-18T13:26:42.918Z,2.13
2022-08-18T13:29:14.203Z,2.20
2022-08-18T13:31:45.606Z,2.20
2022-08-18T13:34:24.455Z,1.80
2022-08-18T13:36:52.488Z,2.40
2022-08-18T13:39:22.932Z,2.17
2022-08-18T13:41:53.727Z,2.40
2022-08-18T13:44:22.654Z,1.87
2022-08-18T13:46:56.060Z,2.60
2022-08-18T13:49:30.492Z,2.10
2022-08-18T13:52:00.758Z,2.00
2022-08-18T13:54:35.521Z,1.80
2022-08-18T13:57:04.146Z,1.90
2022-08-18T13:59:34.169Z,1.80
2022-08-18T14:02:03.146Z,2.33
2022-08-18T14:04:31.266Z,2.43
2022-08-18T14:07:04.468Z,1.87
2022-08-18T14:09:38.642Z,2.03
2022-08-18T14:12:21.521Z,2.03
2022-08-18T14:14:52.186Z,1.97
2022-08-18T14:17:22.560Z,2.13
2022-08-18T14:20:10.627Z,1.83
2022-08-18T14:23:09.625Z,2.63
2022-08-18T14:25:56.407Z,1.83
2022-08-18T14:28:24.654Z,2.17
2022-08-18T14:30:54.428Z,1.90
2022-08-18T14:33:34.318Z,1.80
2022-08-18T14:36:12.279Z,2.00
2022-08-18T14:38:40.574Z,1.80
2022-08-18T14:41:11.569Z,2.30
2022-08-18T14:44:10.353Z,2.00
2022-08-18T14:46:30.587Z,1.80
2022-08-18T14:49:03.765Z,1.67
2022-08-18T14:51:33.452Z,1.80
2022-08-18T14:54:01.756Z,2.00
2022-08-18T14:56:33.408Z,2.00
2022-08-18T14:59:08.044Z,1.67
2022-08-18T15:01:36.349Z,1.77
2022-08-18T15:04:19.018Z,1.70
2022-08-18T15:06:56.417Z,1.73
2022-08-18T15:09:26.895Z,1.93
2022-08-18T15:11:58.596Z,2.10
2022-08-18T15:14:33.474Z,2.03
2022-08-18T15:17:02.622Z,1.87
2022-08-18T15:19:58.683Z,2.00
2022-08-18T15:22:36.291Z,1.90
2022-08-18T15:25:24.090Z,1.80
2022-08-18T15:27:54.130Z,1.90
2022-08-18T15:30:22.866Z,1.90
2022-08-18T15:32:51.484Z,2.07
2022-08-18T15:35:20.192Z,1.97
2022-08-18T15:37:51.221Z,1.90
2022-08-18T15:40:30.526Z,2.13
2022-08-18T15:43:10.122Z,1.97
2022-08-18T15:45:43.274Z,1.73
2022-08-18T15:48:24.767Z,2.00
2022-08-18T15:50:52.886Z,1.70
2022-08-18T15:53:22.286Z,1.93
2022-08-18T15:55:50.494Z,2.03
2022-08-18T15:58:22.322Z,1.73
2022-08-18T16:00:54.729Z,2.00
2022-08-18T16:03:22.698Z,2.33
2022-08-18T16:05:52.628Z,2.10
2022-08-18T16:08:21.439Z,3.50
2022-08-18T16:10:50.825Z,2.47
2022-08-18T16:13:22.096Z,2.10
2022-08-18T16:15:51.413Z,1.87
2022-08-18T16:18:26.050Z,1.40
2022-08-18T16:20:56.767Z,1.60
2022-08-18T16:23:29.704Z,1.97
2022-08-18T16:26:04.383Z,1.70
2022-08-18T16:28:38.082Z,1.83
2022-08-18T16:31:08.737Z,2.10
2022-08-18T16:33:38.879Z,1.63
2022-08-18T16:36:09.269Z,1.53
2022-08-18T16:38:39.084Z,1.97
2022-08-18T16:41:13.498Z,2.00
2022-08-18T16:43:47.061Z,1.90
2022-08-18T16:46:17.789Z,1.80
2022-08-18T16:48:49.601Z,1.97
2022-08-18T16:51:19.876Z,1.50
2022-08-18T16:53:54.816Z,1.50
2022-08-18T16:56:24.789Z,1.60
2022-08-18T16:59:12.538Z,1.60
2022-08-18T17:01:58.316Z,1.37
2022-08-18T17:04:33.867Z,1.53
2022-08-18T17:07:02.374Z,1.67
2022-08-18T17:09:30.821Z,1.60
2022-08-18T17:11:59.092Z,1.90
2022-08-18T17:14:30.024Z,1.53
2022-08-18T17:16:58.905Z,1.70
2022-08-18T17:19:28.058Z,1.60
2022-08-18T17:21:56.654Z,1.60
2022-08-18T17:24:32.144Z,1.60
2022-08-18T17:27:12.092Z,1.33
2022-08-18T17:30:00.858Z,1.63
2022-08-18T17:32:31.842Z,1.97
2022-08-18T17:35:02.460Z,1.80
2022-08-18T17:37:31.506Z,1.70
2022-08-18T17:40:02.723Z,2.00
2022-08-18T17:42:31.811Z,1.80
2022-08-18T17:45:04.367Z,1.67
2022-08-18T17:47:34.277Z,2.00
2022-08-18T17:50:27.958Z,1.70
2022-08-18T17:53:01.325Z,2.10
2022-08-18T17:55:31.385Z,1.70
2022-08-18T17:58:02.251Z,1.80
2022-08-18T18:00:32.674Z,2.03
2022-08-18T18:03:01.568Z,1.80
2022-08-18T18:05:33.213Z,1.70
2022-08-18T18:08:01.432Z,2.20
2022-08-18T18:10:40.250Z,1.90
2022-08-18T18:13:14.070Z,1.80
2022-08-18T18:15:44.767Z,1.77
2022-08-18T18:18:23.614Z,2.00
2022-08-18T18:20:58.612Z,1.90
2022-08-18T18:23:31.178Z,1.80
2022-08-18T18:25:59.178Z,1.90
2022-08-18T18:28:28.824Z,2.10
2022-08-18T18:30:59.107Z,2.60
2022-08-18T18:33:29.334Z,2.13
2022-08-18T18:35:59.349Z,2.40
2022-08-18T18:38:29.441Z,2.10
2022-08-18T18:40:59.399Z,2.30
2022-08-18T18:43:29.177Z,2.00
2022-08-18T18:46:18.562Z,2.00
2022-08-18T18:48:52.475Z,2.07
2022-08-18T18:51:33.413Z,2.50
2022-08-18T18:54:06.490Z,2.33
2022-08-18T18:56:37.501Z,2.10
2022-08-18T18:59:14.275Z,2.20
2022-08-18T19:01:47.714Z,2.20
2022-08-18T19:04:19.573Z,2.50
2022-08-18T19:06:51.433Z,1.83
2022-08-18T19:09:21.239Z,2.83
2022-08-18T19:12:03.574Z,2.47
2022-08-18T19:14:34.716Z,2.10
2022-08-18T19:17:08.776Z,2.50
2022-08-18T19:19:39.411Z,1.90
2022-08-18T19:22:10.358Z,2.30
2022-08-18T19:24:41.937Z,2.13
2022-08-18T19:27:15.081Z,2.60
2022-08-18T19:29:44.439Z,2.70
2022-08-18T19:32:16.774Z,2.37
2022-08-18T19:34:51.467Z,2.83
2022-08-18T19:37:31.031Z,2.80
2022-08-18T19:40:03.858Z,2.30
2022-08-18T19:42:35.365Z,2.33
2022-08-18T19:45:16.387Z,2.30
2022-08-18T19:47:50.130Z,2.10
2022-08-18T19:50:32.897Z,2.23
2022-08-18T19:53:09.018Z,2.23
2022-08-18T19:55:42.349Z,3.93
2022-08-18T19:58:32.053Z,2.40
2022-08-18T20:01:02.180Z,2.13
2022-08-18T20:03:48.959Z,2.03
2022-08-18T20:06:36.133Z,1.93
2022-08-18T20:09:15.950Z,2.23
2022-08-18T20:12:01.636Z,2.00
2022-08-18T20:14:29.973Z,2.00
2022-08-18T20:17:12.981Z,1.87
2022-08-18T20:19:44.776Z,2.10
2022-08-18T20:22:28.284Z,1.73
2022-08-18T20:24:57.369Z,1.73
2022-08-18T20:27:32.865Z,2.13
2022-08-18T20:30:30.710Z,2.00
2022-08-18T20:33:18.806Z,1.93
2022-08-18T20:35:59.516Z,1.80
2022-08-18T20:38:35.068Z,2.00
2022-08-18T20:41:17.977Z,2.00
2022-08-18T20:43:46.037Z,1.80
2022-08-18T20:46:18.243Z,1.93
2022-08-18T20:48:52.875Z,1.90
2022-08-18T20:51:24.973Z,2.17
2022-08-18T20:53:59.168Z,2.03
2022-08-18T20:56:43.383Z,2.40
2022-08-18T20:59:16.687Z,2.00
2022-08-18T21:01:44.683Z,1.93
2022-08-18T21:04:12.648Z,1.90
2022-08-18T21:06:44.702Z,2.67
2022-08-18T21:09:18.145Z,2.20
2022-08-18T21:11:48.485Z,2.10
2022-08-18T21:14:25.169Z,2.20
2022-08-18T21:16:58.948Z,2.27
2022-08-18T21:19:28.011Z,2.07
2022-08-18T21:21:59.569Z,2.20
2022-08-18T21:24:29.309Z,2.40
2022-08-18T21:26:59.078Z,2.13
2022-08-18T21:29:32.912Z,2.10
2022-08-18T21:32:18.503Z,2.40
2022-08-18T21:34:47.412Z,2.40
2022-08-18T21:37:18.268Z,2.13
2022-08-18T21:39:54.204Z,1.93
2022-08-18T21:42:26.155Z,1.97
2022-08-18T21:44:55.870Z,2.10
2022-08-18T21:47:26.191Z,2.30
2022-08-18T21:50:02.297Z,2.30
2022-08-18T21:52:32.402Z,2.30
2022-08-18T21:55:02.539Z,1.87
2022-08-18T21:57:31.219Z,2.30
2022-08-18T22:00:12.891Z,2.13
2022-08-18T22:02:41.380Z,2.70
2022-08-18T22:05:10.928Z,2.10
2022-08-18T22:07:47.143Z,2.20
2022-08-18T22:10:41.024Z,2.00
2022-08-18T22:13:34.721Z,1.90
2022-08-18T22:16:21.490Z,2.00
2022-08-18T22:18:49.936Z,2.10
2022-08-18T22:21:31.924Z,2.03
2022-08-18T22:24:16.200Z,2.03
2022-08-18T22:26:44.281Z,2.10
2022-08-18T22:29:14.570Z,2.30
2022-08-18T22:31:43.612Z,2.00
2022-08-18T22:34:12.551Z,2.30
2022-08-18T22:36:41.903Z,1.70
2022-08-18T22:39:13.267Z,2.23
2022-08-18T22:41:42.063Z,2.03
2022-08-18T22:44:10.630Z,2.43
2022-08-18T22:46:38.592Z,2.13
2022-08-18T22:49:06.555Z,2.17
2022-08-18T22:51:36.413Z,2.00
2022-08-18T22:54:05.403Z,2.20
2022-08-18T22:56:35.805Z,2.40
2022-08-18T22:59:16.053Z,2.10
2022-08-18T23:01:49.430Z,2.40
2022-08-18T23:04:18.593Z,2.43
2022-08-18T23:06:51.899Z,2.37
2022-08-18T23:09:21.031Z,2.50
2022-08-18T23:11:50.461Z,2.30
2022-08-18T23:14:18.389Z,2.23
2022-08-18T23:16:47.347Z,2.60
2022-08-18T23:19:16.251Z,2.70
2022-08-18T23:21:44.315Z,2.70
2022-08-18T23:24:13.928Z,2.80
2022-08-18T23:26:42.213Z,2.40
2022-08-18T23:29:12.760Z,2.27
2022-08-18T23:31:41.797Z,2.67
2022-08-18T23:34:10.592Z,2.50
2022-08-18T23:36:41.254Z,2.67
2022-08-18T23:39:11.848Z,2.77
2022-08-18T23:41:39.919Z,2.50
2022-08-18T23:44:07.847Z,2.70
2022-08-18T23:46:37.982Z,2.80
2022-08-18T23:49:10.668Z,2.83
2022-08-18T23:51:40.357Z,2.70
2022-08-18T23:54:09.359Z,2.97
2022-08-18T23:56:37.960Z,3.17
2022-08-18T23:59:07.066Z,3.00
